createdAt,value
2023-03-01T00:01:56.515Z,12.13
2023-03-01T00:04:23.652Z,12.32
2023-03-01T00:06:50.769Z,13.25
2023-03-01T00:09:17.824Z,13.38
2023-03-01T00:11:44.876Z,13.05
2023-03-01T00:14:12.101Z,12.27
2023-03-01T00:16:42.508Z,12.13
2023-03-01T00:19:10.005Z,12.95
2023-03-01T00:21:37.249Z,12.30
2023-03-01T00:24:04.412Z,12.27
2023-03-01T00:26:31.763Z,13.13
2023-03-01T00:28:59.442Z,13.10
2023-03-01T00:31:27.241Z,12.85
2023-03-01T00:33:58.300Z,13.65
2023-03-01T00:36:29.639Z,13.15
2023-03-01T00:38:57.110Z,14.27
2023-03-01T00:41:24.335Z,13.52
2023-03-01T00:43:51.478Z,13.32
2023-03-01T00:46:19.934Z,13.48
2023-03-01T00:48:47.194Z,13.90
2023-03-01T00:51:14.198Z,13.93
2023-03-01T00:53:41.285Z,14.02
2023-03-01T00:56:08.688Z,13.45
2023-03-01T00:58:35.850Z,13.38
2023-03-01T01:01:02.954Z,13.18
2023-03-01T01:03:29.995Z,13.25
2023-03-01T01:05:57.092Z,13.30
2023-03-01T01:08:24.143Z,13.65
2023-03-01T01:10:51.237Z,13.82
2023-03-01T01:13:18.294Z,14.80
2023-03-01T01:15:45.392Z,14.70
2023-03-01T01:18:12.422Z,14.40
2023-03-01T01:20:39.504Z,14.77
2023-03-01T01:23:07.545Z,14.48
2023-03-01T01:25:36.560Z,14.10
2023-03-01T01:28:03.729Z,14.70
2023-03-01T01:30:30.797Z,14.30
2023-03-01T01:32:57.841Z,14.38
2023-03-01T01:35:25.565Z,14.93
2023-03-01T01:37:52.638Z,14.93
2023-03-01T01:40:19.753Z,15.23
2023-03-01T01:42:46.929Z,13.88
2023-03-01T01:45:26.270Z,14.60
2023-03-01T01:47:53.408Z,13.70
2023-03-01T01:50:20.490Z,15.57
2023-03-01T01:52:47.489Z,13.98
2023-03-01T01:55:16.233Z,14.95
2023-03-01T01:57:55.339Z,14.82
2023-03-01T02:00:23.543Z,15.45
2023-03-01T02:02:52.883Z,14.77
2023-03-01T02:05:22.542Z,14.98
2023-03-01T02:07:49.589Z,14.65
2023-03-01T02:10:16.840Z,14.77
2023-03-01T02:12:43.928Z,14.30
2023-03-01T02:15:11.152Z,15.60
2023-03-01T02:17:38.258Z,15.32
2023-03-01T02:20:17.548Z,14.45
2023-03-01T02:22:45.046Z,15.45
2023-03-01T02:25:21.123Z,15.05
2023-03-01T02:28:03.299Z,14.65
2023-03-01T02:30:30.396Z,13.90
2023-03-01T02:33:03.592Z,14.63
2023-03-01T02:35:31.068Z,14.75
2023-03-01T02:38:01.637Z,14.75
2023-03-01T02:42:56.548Z,14.27
2023-03-01T02:45:24.049Z,14.85
2023-03-01T02:47:51.105Z,15.27
2023-03-01T02:50:21.004Z,15.43
2023-03-01T02:52:48.967Z,14.93
2023-03-01T02:55:16.295Z,15.02
2023-03-01T02:57:44.860Z,15.13
2023-03-01T03:00:20.303Z,15.10
2023-03-01T03:02:48.206Z,15.18
2023-03-01T03:05:18.752Z,14.50
2023-03-01T03:10:14.442Z,14.98
2023-03-01T03:12:41.561Z,14.70
2023-03-01T03:15:09.795Z,14.02
2023-03-01T03:17:40.453Z,15.25
2023-03-01T03:22:34.968Z,13.52
2023-03-01T03:25:02.011Z,13.95
2023-03-01T03:27:30.058Z,13.70
2023-03-01T03:29:57.174Z,14.55
2023-03-01T03:32:24.266Z,15.27
2023-03-01T03:34:51.403Z,14.70
2023-03-01T03:37:37.112Z,14.40
2023-03-01T03:40:04.514Z,14.27
2023-03-01T03:42:31.546Z,14.82
2023-03-01T03:44:58.598Z,14.02
2023-03-01T03:47:25.650Z,14.90
2023-03-01T03:49:52.661Z,14.73
2023-03-01T03:52:19.690Z,14.32
2023-03-01T03:54:46.693Z,14.45
2023-03-01T03:57:13.740Z,14.52
2023-03-01T03:59:40.838Z,14.18
2023-03-01T04:02:09.782Z,15.35
2023-03-01T04:04:36.837Z,14.07
2023-03-01T04:07:03.826Z,14.68
2023-03-01T04:09:31.177Z,14.80
2023-03-01T04:11:58.201Z,14.43
2023-03-01T04:14:25.480Z,15.20
2023-03-01T04:16:52.522Z,14.77
2023-03-01T04:19:19.553Z,15.73
2023-03-01T04:21:46.740Z,15.50
2023-03-01T04:24:13.819Z,14.25
2023-03-01T04:26:40.832Z,14.82
2023-03-01T04:29:07.925Z,14.57
2023-03-01T04:31:35.106Z,14.88
2023-03-01T04:34:02.320Z,14.85
2023-03-01T04:36:30.223Z,15.65
2023-03-01T04:38:57.644Z,14.82
2023-03-01T04:41:25.498Z,14.32
2023-03-01T04:43:52.894Z,15.38
2023-03-01T04:46:20.862Z,15.27
2023-03-01T04:48:48.273Z,13.77
2023-03-01T04:51:15.586Z,15.45
2023-03-01T04:53:42.771Z,15.57
2023-03-01T04:56:09.912Z,14.48
2023-03-01T04:58:37.069Z,14.65
2023-03-01T05:01:15.903Z,15.30
2023-03-01T05:03:46.391Z,14.55
2023-03-01T05:08:40.844Z,14.57
2023-03-01T05:11:09.876Z,15.57
2023-03-01T05:13:37.930Z,15.27
2023-03-01T05:16:05.470Z,15.77
2023-03-01T05:18:33.113Z,15.45
2023-03-01T05:21:10.551Z,15.23
2023-03-01T05:23:37.740Z,15.52
2023-03-01T05:26:06.230Z,15.93
2023-03-01T05:28:34.549Z,15.40
2023-03-01T05:31:01.690Z,15.40
2023-03-01T05:33:28.809Z,15.48
2023-03-01T05:35:56.235Z,15.27
2023-03-01T05:38:23.503Z,15.68
2023-03-01T05:40:50.664Z,16.33
2023-03-01T05:43:18.958Z,15.98
2023-03-01T05:45:46.290Z,16.00
2023-03-01T05:48:13.604Z,15.70
2023-03-01T05:50:44.169Z,16.65
2023-03-01T05:55:38.372Z,15.50
2023-03-01T05:58:06.363Z,17.45
2023-03-01T06:00:33.728Z,15.45
2023-03-01T06:03:01.490Z,16.13
2023-03-01T06:05:28.855Z,17.10
2023-03-01T06:07:55.955Z,17.42
2023-03-01T06:10:23.329Z,17.02
2023-03-01T06:12:50.355Z,16.98
2023-03-01T06:15:17.559Z,16.98
2023-03-01T06:17:46.893Z,16.63
2023-03-01T06:20:15.471Z,16.83
2023-03-01T06:22:42.841Z,16.05
2023-03-01T06:25:10.137Z,16.60
2023-03-01T06:27:37.431Z,16.65
2023-03-01T06:30:04.836Z,17.13
2023-03-01T06:32:32.688Z,16.98
2023-03-01T06:34:59.814Z,17.75
2023-03-01T06:37:27.237Z,16.83
2023-03-01T06:39:54.283Z,17.48
2023-03-01T06:42:21.464Z,15.57
2023-03-01T06:44:48.597Z,16.35
2023-03-01T06:47:15.800Z,16.65
2023-03-01T06:49:42.996Z,16.75
2023-03-01T06:52:10.372Z,16.73
2023-03-01T06:54:37.393Z,16.55
2023-03-01T06:57:04.442Z,16.83
2023-03-01T06:59:32.388Z,16.50
2023-03-01T07:01:59.677Z,16.90
2023-03-01T07:04:29.466Z,17.70
2023-03-01T07:06:56.571Z,18.15
2023-03-01T07:09:24.053Z,16.27
2023-03-01T07:11:51.149Z,16.35
2023-03-01T07:14:18.300Z,16.23
2023-03-01T07:16:45.398Z,16.05
2023-03-01T07:19:12.462Z,16.65
2023-03-01T07:21:40.693Z,16.17
2023-03-01T07:24:10.608Z,15.82
2023-03-01T07:26:37.663Z,15.38
2023-03-01T07:29:05.131Z,15.52
2023-03-01T07:31:32.215Z,16.55
2023-03-01T07:33:59.308Z,14.98
2023-03-01T07:36:26.501Z,16.35
2023-03-01T07:38:53.636Z,15.95
2023-03-01T07:41:20.711Z,15.50
2023-03-01T07:43:47.774Z,16.67
2023-03-01T07:46:14.872Z,15.15
2023-03-01T07:48:41.958Z,15.40
2023-03-01T07:51:09.165Z,15.57
2023-03-01T07:53:36.343Z,15.43
2023-03-01T07:56:07.185Z,15.68
2023-03-01T07:58:37.739Z,15.23
2023-03-01T08:03:31.822Z,14.75
2023-03-01T08:06:00.882Z,15.25
2023-03-01T08:08:28.061Z,14.52
2023-03-01T08:10:57.762Z,14.43
2023-03-01T08:13:24.846Z,14.40
2023-03-01T08:15:51.936Z,13.65
2023-03-01T08:18:19.518Z,14.57
2023-03-01T08:20:46.607Z,14.30
2023-03-01T08:23:13.705Z,13.77
2023-03-01T08:25:40.922Z,13.60
2023-03-01T08:28:08.077Z,13.10
2023-03-01T08:30:35.492Z,14.38
2023-03-01T08:33:02.653Z,13.90
2023-03-01T08:35:29.793Z,13.60
2023-03-01T08:37:57.075Z,13.23
2023-03-01T08:40:24.130Z,12.75
2023-03-01T08:42:51.197Z,13.35
2023-03-01T08:45:19.439Z,12.23
2023-03-01T08:47:46.547Z,13.20
2023-03-01T08:50:13.668Z,12.35
2023-03-01T08:52:40.764Z,12.07
2023-03-01T08:55:08.240Z,12.80
2023-03-01T08:57:35.304Z,12.82
2023-03-01T09:00:02.449Z,11.93
2023-03-01T09:02:29.639Z,12.23
2023-03-01T09:04:56.757Z,12.02
2023-03-01T09:07:28.957Z,11.02
2023-03-01T09:09:56.335Z,11.30
2023-03-01T09:12:23.480Z,11.95
2023-03-01T09:14:50.497Z,12.32
2023-03-01T09:17:17.601Z,11.38
2023-03-01T09:19:44.717Z,12.80
2023-03-01T09:22:11.854Z,11.75
2023-03-01T09:24:38.944Z,11.25
2023-03-01T09:27:09.553Z,11.45
2023-03-01T09:32:03.678Z,11.77
2023-03-01T09:34:30.815Z,10.75
2023-03-01T09:36:59.385Z,11.48
2023-03-01T09:39:26.490Z,11.13
2023-03-01T09:42:02.887Z,11.50
2023-03-01T09:44:44.742Z,11.15
2023-03-01T09:47:18.256Z,11.68
2023-03-01T09:49:49.616Z,10.75
2023-03-01T09:52:25.384Z,10.93
2023-03-01T09:54:54.520Z,11.60
2023-03-01T09:57:40.444Z,11.27
2023-03-01T10:00:11.037Z,10.63
2023-03-01T10:05:07.473Z,10.23
2023-03-01T10:07:39.929Z,10.77
2023-03-01T10:10:08.495Z,9.98
2023-03-01T10:12:41.016Z,10.57
2023-03-01T10:15:11.314Z,9.98
2023-03-01T10:17:39.858Z,10.40
2023-03-01T10:20:15.127Z,10.90
2023-03-01T10:22:42.187Z,10.30
2023-03-01T10:25:10.351Z,10.05
2023-03-01T10:27:43.415Z,10.07
2023-03-01T10:30:21.343Z,9.65
2023-03-01T10:32:49.968Z,9.13
2023-03-01T10:35:24.333Z,9.45
2023-03-01T10:38:08.032Z,9.18
2023-03-01T10:40:35.484Z,8.98
2023-03-01T10:43:03.625Z,9.20
2023-03-01T10:45:30.833Z,8.48
2023-03-01T10:48:10.048Z,9.10
2023-03-01T10:50:40.340Z,9.52
2023-03-01T10:53:20.658Z,9.35
2023-03-01T10:55:47.734Z,9.02
2023-03-01T10:58:21.622Z,8.80
2023-03-01T11:00:48.730Z,8.55
2023-03-01T11:03:17.547Z,8.95
2023-03-01T11:05:55.658Z,9.30
2023-03-01T11:08:34.477Z,8.23
2023-03-01T11:11:05.497Z,9.02
2023-03-01T11:16:03.437Z,8.77
2023-03-01T11:18:46.206Z,8.18
2023-03-01T11:21:14.924Z,8.45
2023-03-01T11:23:42.263Z,8.63
2023-03-01T11:26:11.511Z,8.23
2023-03-01T11:28:39.477Z,8.43
2023-03-01T11:31:09.666Z,7.97
2023-03-01T11:33:45.311Z,8.40
2023-03-01T11:36:28.839Z,8.02
2023-03-01T11:38:55.895Z,9.48
2023-03-01T11:41:27.346Z,8.32
2023-03-01T11:44:01.649Z,8.32
2023-03-01T11:46:34.753Z,8.32
2023-03-01T11:49:08.056Z,9.10
2023-03-01T11:51:40.520Z,8.98
2023-03-01T11:54:26.304Z,8.82
2023-03-01T11:57:02.358Z,9.02
2023-03-01T11:59:43.514Z,9.35
2023-03-01T12:02:16.626Z,9.57
2023-03-01T12:05:05.310Z,8.77
2023-03-01T12:07:54.107Z,8.98
2023-03-01T12:10:22.236Z,8.52
2023-03-01T12:12:49.421Z,9.18
2023-03-01T12:15:35.113Z,9.35
2023-03-01T12:18:20.597Z,8.85
2023-03-01T12:21:03.406Z,9.00
2023-03-01T12:23:30.441Z,8.35
2023-03-01T12:26:09.803Z,8.40
2023-03-01T12:28:46.623Z,8.65
2023-03-01T12:31:13.812Z,9.27
2023-03-01T12:33:45.379Z,8.27
2023-03-01T12:36:25.699Z,8.70
2023-03-01T12:39:09.288Z,7.72
2023-03-01T12:41:55.170Z,9.00
2023-03-01T12:44:28.477Z,7.95
2023-03-01T12:46:58.543Z,8.10
2023-03-01T12:49:27.408Z,8.90
2023-03-01T12:52:15.359Z,7.95
2023-03-01T12:54:42.388Z,8.40
2023-03-01T12:57:13.253Z,7.65
2023-03-01T13:00:02.675Z,8.07
2023-03-01T13:02:34.665Z,7.80
2023-03-01T13:05:03.770Z,7.60
2023-03-01T13:07:38.132Z,7.50
2023-03-01T13:10:13.371Z,7.70
2023-03-01T13:12:43.470Z,7.28
2023-03-01T13:15:26.249Z,8.20
2023-03-01T13:17:53.992Z,7.13
2023-03-01T13:20:22.009Z,7.15
2023-03-01T13:22:54.628Z,7.43
2023-03-01T13:25:24.316Z,7.50
2023-03-01T13:27:52.914Z,7.57
2023-03-01T13:30:28.857Z,7.53
2023-03-01T13:32:58.847Z,8.07
2023-03-01T13:35:28.950Z,7.93
2023-03-01T13:37:56.027Z,8.00
2023-03-01T13:40:24.497Z,6.93
2023-03-01T13:43:03.131Z,7.78
2023-03-01T13:48:18.923Z,7.03
2023-03-01T13:50:57.011Z,7.82
2023-03-01T13:53:24.594Z,6.78
2023-03-01T13:55:59.969Z,7.38
2023-03-01T13:58:33.874Z,7.03
2023-03-01T14:01:05.088Z,7.97
2023-03-01T14:03:33.157Z,7.70
2023-03-01T14:06:15.929Z,7.10
2023-03-01T14:08:44.780Z,7.13
2023-03-01T14:11:14.908Z,7.53
2023-03-01T14:13:42.598Z,8.10
2023-03-01T14:16:09.791Z,7.63
2023-03-01T14:18:49.693Z,8.63
2023-03-01T14:21:16.710Z,8.20
2023-03-01T14:23:43.955Z,8.45
2023-03-01T14:26:13.068Z,8.98
2023-03-01T14:28:40.163Z,8.18
2023-03-01T14:31:26.220Z,8.15
2023-03-01T14:33:56.831Z,7.88
2023-03-01T14:38:50.907Z,7.20
2023-03-01T14:41:19.459Z,7.85
2023-03-01T14:43:48.568Z,8.70
2023-03-01T14:46:22.374Z,7.30
2023-03-01T14:48:56.317Z,7.53
2023-03-01T14:51:23.458Z,7.90
2023-03-01T14:53:51.571Z,7.65
2023-03-01T14:56:19.754Z,7.32
2023-03-01T14:58:49.738Z,7.90
2023-03-01T15:01:17.671Z,7.70
2023-03-01T15:03:45.521Z,6.75
2023-03-01T15:06:13.063Z,7.18
2023-03-01T15:08:42.782Z,6.95
2023-03-01T15:11:25.267Z,7.03
2023-03-01T15:13:52.816Z,6.55
2023-03-01T15:16:19.936Z,6.53
2023-03-01T15:18:50.277Z,7.05
2023-03-01T15:21:23.889Z,7.43
2023-03-01T15:23:53.284Z,6.93
2023-03-01T15:26:30.549Z,7.25
2023-03-01T15:28:59.120Z,6.78
2023-03-01T15:31:30.349Z,7.05
2023-03-01T15:34:21.204Z,7.18
2023-03-01T15:36:51.047Z,7.00
2023-03-01T15:39:29.274Z,6.40
2023-03-01T15:41:56.376Z,7.47
2023-03-01T15:44:29.971Z,7.00
2023-03-01T15:47:02.065Z,7.28
2023-03-01T15:49:33.345Z,7.45
2023-03-01T15:52:00.452Z,6.47
2023-03-01T15:54:27.818Z,6.63
2023-03-01T15:56:54.935Z,6.95
2023-03-01T15:59:23.136Z,6.50
2023-03-01T16:01:50.291Z,6.35
2023-03-01T16:04:24.350Z,6.75
2023-03-01T16:06:55.062Z,7.30
2023-03-01T16:11:49.438Z,6.65
2023-03-01T16:14:17.344Z,6.55
2023-03-01T16:16:45.008Z,6.50
2023-03-01T16:19:15.606Z,6.50
2023-03-01T16:24:10.460Z,7.15
2023-03-01T16:26:38.379Z,7.57
2023-03-01T16:29:05.548Z,7.55
2023-03-01T16:31:33.796Z,7.95
2023-03-01T16:34:01.305Z,7.88
2023-03-01T16:36:29.419Z,7.57
2023-03-01T16:38:57.064Z,7.35
2023-03-01T16:41:24.441Z,8.05
2023-03-01T16:43:51.578Z,7.63
2023-03-01T16:46:20.330Z,8.50
2023-03-01T16:48:47.564Z,7.95
2023-03-01T16:51:14.816Z,8.27
2023-03-01T16:53:41.988Z,7.93
2023-03-01T16:56:10.021Z,7.85
2023-03-01T16:58:37.579Z,8.98
2023-03-01T17:01:08.633Z,8.70
2023-03-01T17:03:35.878Z,7.68
2023-03-01T17:06:03.868Z,8.15
2023-03-01T17:08:30.895Z,7.68
2023-03-01T17:11:03.032Z,8.05
2023-03-01T17:13:30.119Z,7.65
2023-03-01T17:15:57.181Z,7.40
2023-03-01T17:18:25.084Z,7.72
2023-03-01T17:20:52.191Z,8.52
2023-03-01T17:23:19.217Z,8.55
2023-03-01T17:25:46.496Z,8.95
2023-03-01T17:28:14.641Z,8.32
2023-03-01T17:30:45.196Z,8.85
2023-03-01T17:35:39.424Z,8.38
2023-03-01T17:38:06.701Z,9.13
2023-03-01T17:40:33.927Z,9.35
2023-03-01T17:43:00.993Z,8.90
2023-03-01T17:45:28.099Z,9.63
2023-03-01T17:47:55.218Z,8.65
2023-03-01T17:50:22.363Z,8.80
2023-03-01T17:52:49.830Z,8.25
2023-03-01T17:55:16.908Z,7.35
2023-03-01T17:57:44.045Z,7.70
2023-03-01T18:00:11.734Z,7.75
2023-03-01T18:02:38.841Z,8.27
2023-03-01T18:05:06.074Z,8.30
2023-03-01T18:07:33.177Z,8.50
2023-03-01T18:10:00.205Z,7.68
2023-03-01T18:12:27.264Z,8.25
2023-03-01T18:14:54.308Z,7.90
2023-03-01T18:17:23.089Z,8.48
2023-03-01T18:19:51.080Z,8.37
2023-03-01T18:22:18.169Z,7.65
2023-03-01T18:24:45.257Z,9.88
2023-03-01T18:27:12.333Z,11.18
2023-03-01T18:29:39.389Z,10.55
2023-03-01T18:32:06.843Z,8.90
2023-03-01T18:34:34.990Z,9.00
2023-03-01T18:37:10.134Z,8.85
2023-03-01T18:39:37.703Z,9.63
2023-03-01T18:42:04.789Z,9.02
2023-03-01T18:44:31.849Z,9.55
2023-03-01T18:46:58.964Z,10.07
2023-03-01T18:49:26.345Z,9.35
2023-03-01T18:51:53.592Z,8.60
2023-03-01T18:54:20.717Z,9.57
2023-03-01T18:56:47.772Z,9.98
2023-03-01T18:59:14.805Z,9.43
2023-03-01T19:01:42.354Z,9.50
2023-03-01T19:04:10.880Z,9.85
2023-03-01T19:06:38.101Z,10.30
2023-03-01T19:09:05.461Z,10.00
2023-03-01T19:11:33.508Z,8.80
2023-03-01T19:14:00.808Z,8.95
2023-03-01T19:16:28.912Z,8.98
2023-03-01T19:18:56.866Z,8.98
2023-03-01T19:21:26.757Z,9.13
2023-03-01T19:23:53.925Z,8.98
2023-03-01T19:26:21.982Z,9.18
2023-03-01T19:28:49.075Z,9.68
2023-03-01T19:31:17.206Z,9.98
2023-03-01T19:33:44.397Z,9.10
2023-03-01T19:36:12.164Z,8.85
2023-03-01T19:38:39.512Z,9.73
2023-03-01T19:41:07.306Z,9.95
2023-03-01T19:43:35.030Z,9.05
2023-03-01T19:46:02.215Z,9.65
2023-03-01T19:48:29.466Z,8.95
2023-03-01T19:50:56.930Z,9.05
2023-03-01T19:53:24.831Z,8.60
2023-03-01T19:55:53.052Z,9.07
2023-03-01T19:58:20.189Z,9.30
2023-03-01T20:00:47.521Z,9.40
2023-03-01T20:03:14.752Z,10.50
2023-03-01T20:05:43.622Z,10.63
2023-03-01T20:08:10.782Z,9.65
2023-03-01T20:10:37.963Z,9.70
2023-03-01T20:13:05.042Z,9.35
2023-03-01T20:15:32.089Z,8.50
2023-03-01T20:17:59.262Z,8.90
2023-03-01T20:20:26.311Z,10.20
2023-03-01T20:22:53.367Z,9.70
2023-03-01T20:25:20.407Z,9.82
2023-03-01T20:27:47.768Z,9.98
2023-03-01T20:30:15.452Z,9.55
2023-03-01T20:32:42.626Z,10.63
2023-03-01T20:35:10.083Z,10.18
2023-03-01T20:37:37.300Z,9.48
2023-03-01T20:40:04.592Z,10.43
2023-03-01T20:42:31.787Z,9.48
2023-03-01T20:44:58.997Z,10.00
2023-03-01T20:47:26.233Z,10.15
2023-03-01T20:49:53.352Z,10.18
2023-03-01T20:52:20.396Z,10.45
2023-03-01T20:54:47.544Z,11.00
2023-03-01T20:57:14.634Z,10.85
2023-03-01T20:59:41.676Z,11.85
2023-03-01T21:02:08.787Z,11.32
2023-03-01T21:04:35.871Z,11.40
2023-03-01T21:07:02.896Z,11.00
2023-03-01T21:09:29.917Z,12.57
2023-03-01T21:11:57.705Z,11.15
2023-03-01T21:14:25.010Z,11.15
2023-03-01T21:16:52.103Z,10.57
2023-03-01T21:19:19.231Z,10.48
2023-03-01T21:21:46.240Z,11.77
2023-03-01T21:24:13.950Z,10.57
2023-03-01T21:26:41.007Z,12.05
2023-03-01T21:29:08.516Z,10.85
2023-03-01T21:31:35.767Z,11.25
2023-03-01T21:34:06.400Z,10.93
2023-03-01T21:39:02.124Z,10.23
2023-03-01T21:41:30.051Z,10.68
2023-03-01T21:43:57.477Z,10.45
2023-03-01T21:46:24.846Z,11.85
2023-03-01T21:48:52.406Z,10.75
2023-03-01T21:51:20.118Z,11.77
2023-03-01T21:53:47.177Z,12.38
2023-03-01T21:56:18.184Z,12.85
2023-03-01T21:58:45.309Z,12.45
2023-03-01T22:01:14.022Z,12.73
2023-03-01T22:03:46.877Z,11.20
2023-03-01T22:06:19.862Z,11.38
2023-03-01T22:08:55.183Z,11.90
2023-03-01T22:11:22.411Z,13.00
2023-03-01T22:13:52.015Z,12.52
2023-03-01T22:16:19.593Z,12.32
2023-03-01T22:18:46.803Z,11.35
2023-03-01T22:21:14.000Z,11.27
2023-03-01T22:23:41.188Z,11.52
2023-03-01T22:26:08.725Z,11.88
2023-03-01T22:28:35.811Z,12.77
2023-03-01T22:31:06.105Z,12.00
2023-03-01T22:33:33.233Z,12.07
2023-03-01T22:36:00.358Z,12.82
2023-03-01T22:38:27.493Z,12.65
2023-03-01T22:40:58.514Z,12.73
2023-03-01T22:43:25.694Z,12.20
2023-03-01T22:45:52.822Z,12.55
2023-03-01T22:48:19.910Z,12.73
2023-03-01T22:50:47.065Z,12.13
2023-03-01T22:53:14.303Z,12.05
2023-03-01T22:55:41.414Z,12.00
2023-03-01T22:58:08.639Z,11.55
2023-03-01T23:00:35.655Z,11.63
2023-03-01T23:03:02.828Z,11.93
2023-03-01T23:05:30.077Z,12.10
2023-03-01T23:07:57.261Z,11.40
2023-03-01T23:10:25.821Z,11.43
2023-03-01T23:12:55.046Z,12.18
2023-03-01T23:15:22.080Z,11.65
2023-03-01T23:17:49.167Z,11.63
2023-03-01T23:20:17.125Z,10.90
2023-03-01T23:22:44.328Z,11.27
2023-03-01T23:25:14.861Z,11.02
2023-03-01T23:27:42.176Z,11.25
2023-03-01T23:30:09.607Z,11.85
2023-03-01T23:32:40.705Z,11.68
2023-03-01T23:35:11.108Z,11.50
2023-03-01T23:37:38.164Z,10.80
2023-03-01T23:40:08.719Z,10.75
2023-03-01T23:45:02.876Z,10.75
2023-03-01T23:47:29.984Z,10.45
2023-03-01T23:49:57.401Z,10.60
2023-03-01T23:52:24.565Z,10.90
2023-03-01T23:54:52.000Z,10.98
2023-03-01T23:57:19.433Z,10.50
2023-03-01T23:59:46.544Z,10.55
